createdAt,value
2023-03-22T00:01:58.336Z,21.20
2023-03-22T00:07:00.427Z,20.60
2023-03-22T00:12:02.388Z,21.40
2023-03-22T00:17:04.166Z,21.50
2023-03-22T00:22:06.310Z,23.20
2023-03-22T00:27:08.535Z,22.00
2023-03-22T00:32:10.410Z,21.20
2023-03-22T00:37:12.184Z,19.60
2023-03-22T00:42:14.382Z,20.40
2023-03-22T00:47:16.142Z,21.90
2023-03-22T00:52:17.920Z,21.30
2023-03-22T00:57:20.209Z,18.10
2023-03-22T01:02:29.579Z,23.60
2023-03-22T01:07:32.771Z,25.30
2023-03-22T01:12:34.535Z,23.40
2023-03-22T01:17:36.155Z,25.50
2023-03-22T01:22:39.279Z,25.60
2023-03-22T01:27:41.090Z,35.00
2023-03-22T01:32:42.860Z,59.80
2023-03-22T01:37:45.352Z,55.40
2023-03-22T01:42:47.342Z,42.20
2023-03-22T01:47:57.424Z,29.40
2023-03-22T01:53:04.511Z,26.90
2023-03-22T01:58:06.587Z,27.50
2023-03-22T02:03:09.904Z,35.40
2023-03-22T02:13:38.535Z,23.50
2023-03-22T02:18:55.568Z,26.10
2023-03-22T02:24:00.416Z,29.10
2023-03-22T02:29:32.598Z,24.10
2023-03-22T02:35:12.059Z,24.90
2023-03-22T02:40:24.735Z,43.40
2023-03-22T02:45:53.799Z,38.70
2023-03-22T02:51:05.198Z,35.70
2023-03-22T02:56:52.272Z,32.70
2023-03-22T03:01:59.779Z,28.20
2023-03-22T03:07:06.589Z,28.80
2023-03-22T03:12:23.977Z,29.10
2023-03-22T03:17:37.530Z,30.20
2023-03-22T03:23:04.490Z,24.60
2023-03-22T03:28:47.025Z,22.30
2023-03-22T03:34:21.370Z,23.00
2023-03-22T03:39:27.877Z,25.30
2023-03-22T03:44:32.289Z,27.20
2023-03-22T03:49:35.492Z,20.60
2023-03-22T03:54:37.272Z,18.20
2023-03-22T03:59:38.947Z,18.50
2023-03-22T04:04:40.769Z,27.40
2023-03-22T04:09:42.690Z,27.60
2023-03-22T04:14:44.481Z,18.40
2023-03-22T04:19:46.049Z,18.50
2023-03-22T04:24:49.759Z,19.50
2023-03-22T04:29:51.835Z,18.20
2023-03-22T04:34:53.608Z,20.00
2023-03-22T04:39:55.485Z,19.00
2023-03-22T04:44:57.467Z,18.60
2023-03-22T04:49:59.263Z,17.10
2023-03-22T04:55:01.025Z,19.20
2023-03-22T05:00:08.510Z,39.50
2023-03-22T05:05:11.022Z,30.80
2023-03-22T05:10:12.892Z,35.60
2023-03-22T05:15:15.003Z,24.90
2023-03-22T05:20:17.361Z,24.80
2023-03-22T05:25:19.339Z,28.90
2023-03-22T05:30:21.657Z,26.60
2023-03-22T05:35:24.072Z,25.30
2023-03-22T05:40:26.590Z,22.30
2023-03-22T05:45:28.803Z,24.50
2023-03-22T05:50:32.125Z,23.70
2023-03-22T05:55:35.111Z,24.00
2023-03-22T06:00:38.204Z,23.10
2023-03-22T06:05:40.606Z,19.00
2023-03-22T06:10:42.812Z,20.50
2023-03-22T06:15:46.202Z,16.40
2023-03-22T06:20:47.979Z,19.80
2023-03-22T06:25:49.864Z,19.50
2023-03-22T06:30:51.766Z,21.80
2023-03-22T06:35:53.656Z,21.60
2023-03-22T06:40:56.500Z,20.60
2023-03-22T06:45:58.625Z,18.80
2023-03-22T06:51:01.175Z,19.80
2023-03-22T06:56:03.506Z,18.60
2023-03-22T07:01:05.999Z,16.60
2023-03-22T07:06:08.870Z,20.00
2023-03-22T07:11:10.837Z,19.50
2023-03-22T07:16:12.947Z,20.10
2023-03-22T07:21:15.201Z,21.00
2023-03-22T07:26:16.974Z,21.20
2023-03-22T07:31:19.054Z,23.20
2023-03-22T07:36:23.597Z,25.60
2023-03-22T07:41:26.717Z,27.20
2023-03-22T07:46:28.409Z,39.40
2023-03-22T07:51:31.084Z,34.30
2023-03-22T07:56:32.957Z,22.20
2023-03-22T08:01:35.075Z,20.80
2023-03-22T08:06:37.845Z,22.10
2023-03-22T08:11:40.025Z,22.30
2023-03-22T08:16:43.817Z,20.90
2023-03-22T08:21:46.048Z,16.50
2023-03-22T08:26:50.592Z,19.50
2023-03-22T08:31:52.769Z,23.30
2023-03-22T08:36:55.651Z,25.50
2023-03-22T08:41:58.148Z,40.60
2023-03-22T08:47:01.663Z,25.70
2023-03-22T08:52:07.013Z,27.60
2023-03-22T08:57:11.659Z,26.40
2023-03-22T09:02:14.102Z,28.80
2023-03-22T09:07:17.151Z,24.70
2023-03-22T09:12:18.928Z,20.40
2023-03-22T09:17:22.452Z,25.60
2023-03-22T09:22:24.829Z,27.70
2023-03-22T09:27:27.527Z,30.40
2023-03-22T09:32:29.217Z,29.70
2023-03-22T09:37:31.195Z,27.20
2023-03-22T09:42:46.268Z,33.70
2023-03-22T09:47:52.356Z,34.00
2023-03-22T09:52:54.750Z,31.40
2023-03-22T09:58:07.367Z,34.10
2023-03-22T10:03:21.010Z,33.30
2023-03-22T10:08:41.122Z,33.40
2023-03-22T10:14:20.773Z,32.90
2023-03-22T10:19:29.316Z,27.60
2023-03-22T10:24:33.541Z,29.90
2023-03-22T10:29:41.464Z,33.80
2023-03-22T10:34:44.053Z,35.50
2023-03-22T10:39:52.340Z,31.20
2023-03-22T10:45:05.025Z,35.60
2023-03-22T10:50:39.066Z,31.40
2023-03-22T10:55:43.935Z,31.40
2023-03-22T11:01:11.320Z,28.90
2023-03-22T11:06:20.522Z,31.60
2023-03-22T11:11:27.306Z,32.50
2023-03-22T11:16:31.381Z,32.10
2023-03-22T11:21:34.038Z,33.00
2023-03-22T11:26:40.705Z,30.50
2023-03-22T11:31:54.230Z,32.30
2023-03-22T11:37:01.277Z,26.70
2023-03-22T11:42:06.240Z,33.80
2023-03-22T11:47:11.781Z,29.90
2023-03-22T11:52:26.249Z,31.80
2023-03-22T11:57:35.604Z,28.80
2023-03-22T12:02:48.349Z,28.90
2023-03-22T12:08:13.747Z,30.30
2023-03-22T12:13:43.709Z,26.10
2023-03-22T12:18:51.104Z,26.50
2023-03-22T12:23:58.514Z,26.30
2023-03-22T12:29:15.746Z,26.60
2023-03-22T12:34:21.712Z,24.10
2023-03-22T12:39:34.665Z,29.00
2023-03-22T12:44:44.927Z,27.20
2023-03-22T12:50:11.695Z,27.00
2023-03-22T12:55:35.802Z,26.10
2023-03-22T13:00:47.533Z,27.90
2023-03-22T13:06:01.459Z,22.20
2023-03-22T13:11:04.832Z,24.60
2023-03-22T13:16:10.354Z,22.10
2023-03-22T13:21:14.197Z,22.10
2023-03-22T13:26:17.264Z,24.90
2023-03-22T13:31:41.502Z,22.60
2023-03-22T13:36:55.931Z,27.40
2023-03-22T13:42:36.306Z,27.30
2023-03-22T13:47:46.414Z,28.60
2023-03-22T13:52:59.312Z,27.00
2023-03-22T13:58:02.518Z,27.60
2023-03-22T14:08:25.236Z,24.80
2023-03-22T14:13:42.143Z,27.60
2023-03-22T14:18:47.311Z,24.70
